Time;durP1;ratioP1;P1;durP2;ratioP2;P2;SDS_P1;SDS_P2;PMS_P1;PMS_P2;Temp;Humidity;BMP_temperature;BMP_pressure;BME280_temperature;BME280_humidity;BME280_pressure;Samples;Min_cycle;Max_cycle;Signal;HPM_P1;HPM_P2
2022/05/01 00:01:02;;;;;;;5.97;4.10;;;;;;;5.61;nan;101555.16;4986018;28;20097;-86
2022/05/01 00:03:35;;;;;;;6.53;3.67;;;;;;;5.57;nan;101551.63;4976234;28;20137;-85
2022/05/01 00:06:04;;;;;;;6.23;4.60;;;;;;;5.42;nan;101556.66;4974434;28;20099;-85
2022/05/01 00:08:36;;;;;;;8.03;3.80;;;;;;;5.35;nan;101554.78;4963944;28;20129;-83
2022/05/01 00:11:04;;;;;;;5.87;4.20;;;;;;;5.30;nan;101551.25;5006015;28;20105;-83
2022/05/01 00:13:41;;;;;;;8.00;4.53;;;;;;;5.30;nan;101552.13;4973564;28;20093;-87
2022/05/01 00:16:10;;;;;;;6.73;4.77;;;;;;;5.18;nan;101562.38;4992023;28;20106;-84
2022/05/01 00:18:41;;;;;;;6.80;4.77;;;;;;;5.14;nan;101559.72;4991529;28;20113;-85
2022/05/01 00:21:10;;;;;;;8.00;4.10;;;;;;;5.15;nan;101558.84;4993127;28;20093;-84
2022/05/01 00:23:39;;;;;;;8.33;4.40;;;;;;;5.14;nan;101559.72;4999399;28;20120;-85
2022/05/01 00:26:13;;;;;;;7.90;5.17;;;;;;;5.06;nan;101554.34;4984525;28;20052;-86
2022/05/01 00:28:43;;;;;;;8.83;4.27;;;;;;;4.97;nan;101555.09;5001219;28;20102;-82
2022/05/01 00:31:16;;;;;;;8.37;4.57;;;;;;;4.90;nan;101553.22;4995905;28;20114;-83
2022/05/01 00:36:28;;;;;;;6.07;4.27;;;;;;;4.77;nan;101557.34;4996945;28;20541;-84
2022/05/01 00:39:01;;;;;;;7.60;4.47;;;;;;;4.75;nan;101551.19;4968837;28;21580;-86
2022/05/01 00:41:33;;;;;;;9.07;4.90;;;;;;;4.77;nan;101551.22;4967200;28;20120;-84
2022/05/01 00:44:06;;;;;;;7.70;4.17;;;;;;;4.82;nan;101549.56;4979543;28;20038;-87
2022/05/01 00:46:38;;;;;;;7.97;4.60;;;;;;;4.72;nan;101558.13;4997400;28;20039;-86
2022/05/01 00:49:08;;;;;;;10.07;4.83;;;;;;;4.65;nan;101556.25;4965207;28;20046;-84
2022/05/01 00:51:43;;;;;;;6.57;4.63;;;;;;;4.48;nan;101548.97;4983832;28;20041;-86
2022/05/01 00:54:11;;;;;;;6.13;5.00;;;;;;;4.43;nan;101552.34;4983685;28;20030;-85
2022/05/01 00:56:40;;;;;;;8.77;5.43;;;;;;;4.43;nan;101552.34;4996607;28;20113;-85
2022/05/01 00:59:09;;;;;;;8.37;4.70;;;;;;;4.40;nan;101555.81;4979476;28;20042;-86
2022/05/01 01:01:37;;;;;;;7.87;4.40;;;;;;;4.40;nan;101553.19;4979338;28;22070;-86
2022/05/01 01:04:04;;;;;;;8.67;4.63;;;;;;;4.38;nan;101559.25;4965999;28;20113;-86
2022/05/01 01:06:31;;;;;;;7.77;4.60;;;;;;;4.34;nan;101558.28;4969084;28;20124;-86
2022/05/01 01:08:59;;;;;;;7.83;4.50;;;;;;;4.27;nan;101566.88;4968441;28;20444;-87
2022/05/01 01:11:26;;;;;;;6.23;4.63;;;;;;;4.28;nan;101567.75;4991651;28;20129;-85
2022/05/01 01:13:54;;;;;;;6.77;4.80;;;;;;;4.24;nan;101558.97;4978120;28;20033;-85
2022/05/01 01:16:21;;;;;;;7.47;4.80;;;;;;;4.28;nan;101567.75;4996347;28;20109;-83
2022/05/01 01:18:48;;;;;;;7.10;4.60;;;;;;;4.32;nan;101553.88;4966274;28;20129;-86
2022/05/01 01:21:16;;;;;;;6.20;4.63;;;;;;;4.30;nan;101563.44;4983139;28;20499;-85
2022/05/01 01:23:43;;;;;;;8.23;4.43;;;;;;;4.29;nan;101557.34;4982108;28;20042;-87
2022/05/01 01:26:11;;;;;;;10.63;6.63;;;;;;;4.30;nan;101555.59;4980989;28;20109;-83
2022/05/01 01:28:43;;;;;;;8.27;4.37;;;;;;;4.39;nan;101554.03;4979915;28;20070;-84
2022/05/01 01:34:04;;;;;;;8.57;5.10;;;;;;;4.34;nan;101552.19;4998013;28;20574;-85
2022/05/01 01:36:32;;;;;;;6.57;4.73;;;;;;;4.35;nan;101549.59;4989065;28;20121;-87
2022/05/01 01:38:59;;;;;;;5.17;4.43;;;;;;;4.42;nan;101555.81;4971645;28;20050;-86
2022/05/01 01:41:29;;;;;;;7.17;5.20;;;;;;;4.36;nan;101561.81;4988424;28;20118;-85
2022/05/01 01:43:59;;;;;;;8.40;4.87;;;;;;;4.31;nan;101554.75;4995713;28;20228;-85
2022/05/01 01:46:26;;;;;;;6.93;5.63;;;;;;;4.30;nan;101561.72;4981004;28;20034;-87
2022/05/01 01:48:53;;;;;;;7.60;5.23;;;;;;;4.17;nan;101560.56;4977769;28;20034;-85
2022/05/01 01:51:20;;;;;;;8.27;4.53;;;;;;;4.14;nan;101559.66;4965796;28;20439;-87
2022/05/01 01:53:47;;;;;;;6.00;4.70;;;;;;;4.18;nan;101564.94;4985872;28;20101;-86
2022/05/01 01:56:14;;;;;;;6.73;4.57;;;;;;;4.16;nan;101565.78;4993155;28;20034;-86
2022/05/01 01:58:41;;;;;;;8.03;4.87;;;;;;;4.14;nan;101568.38;4997571;28;20052;-86
2022/05/01 02:01:10;;;;;;;10.47;4.80;;;;;;;4.19;nan;101555.38;4985551;28;20220;-86
2022/05/01 02:03:37;;;;;;;9.03;4.50;;;;;;;4.18;nan;101553.59;4993612;28;20180;-86
2022/05/01 02:06:05;;;;;;;10.60;4.97;;;;;;;4.12;nan;101557.00;4975348;28;20034;-87
2022/05/01 02:08:34;;;;;;;8.87;5.53;;;;;;;4.00;nan;101551.50;4979058;28;20052;-87
2022/05/01 02:11:04;;;;;;;8.93;5.50;;;;;;;3.97;nan;101547.97;4987749;28;20042;-87
2022/05/01 02:13:34;;;;;;;7.73;5.00;;;;;;;3.97;nan;101550.56;4975150;28;20045;-88
2022/05/01 02:16:02;;;;;;;7.57;4.87;;;;;;;3.96;nan;101554.94;4974889;28;20311;-86
2022/05/01 02:18:29;;;;;;;9.50;4.87;;;;;;;3.86;nan;101552.94;4977127;28;20508;-86
2022/05/01 02:23:41;;;;;;;8.97;5.00;;;;;;;3.73;nan;101554.44;4980532;28;20046;-84
2022/05/01 02:26:20;;;;;;;10.17;5.73;;;;;;;3.71;nan;101556.13;4962246;28;20030;-86
2022/05/01 02:28:47;;;;;;;6.63;5.10;;;;;;;3.66;nan;101558.63;4980084;28;20558;-86
2022/05/01 02:31:14;;;;;;;8.60;5.10;;;;;;;3.57;nan;101562.78;4968015;28;20121;-86
2022/05/01 02:33:41;;;;;;;10.60;5.10;;;;;;;3.59;nan;101561.94;4981764;28;20110;-87
2022/05/01 02:36:08;;;;;;;8.33;4.87;;;;;;;3.53;nan;101564.44;4996820;28;20045;-87
2022/05/01 02:38:36;;;;;;;9.13;5.50;;;;;;;3.49;nan;101559.13;4977791;28;20030;-87
2022/05/01 02:41:05;;;;;;;6.93;5.20;;;;;;;3.48;nan;101554.75;4989027;28;20109;-85
2022/05/01 02:43:32;;;;;;;7.37;5.13;;;;;;;3.49;nan;101551.28;4993129;28;20102;-87
2022/05/01 02:46:01;;;;;;;7.20;4.80;;;;;;;3.37;nan;101558.00;4976848;28;20105;-85
2022/05/01 02:48:29;;;;;;;7.30;5.20;;;;;;;3.36;nan;101553.63;5001124;28;20105;-83
2022/05/01 02:50:56;;;;;;;8.40;4.87;;;;;;;3.37;nan;101560.59;5002346;28;20458;-87
2022/05/01 02:53:27;;;;;;;7.80;5.00;;;;;;;3.31;nan;101560.44;4981143;28;20128;-85
2022/05/01 02:56:04;;;;;;;7.27;4.80;;;;;;;3.29;nan;101556.06;5016657;28;20393;-87
2022/05/01 02:58:31;;;;;;;7.87;5.30;;;;;;;3.28;nan;101554.25;4970132;28;20196;-86
2022/05/01 03:00:59;;;;;;;6.17;4.83;;;;;;;3.25;nan;101557.69;4993075;28;20094;-86
2022/05/01 03:03:29;;;;;;;8.47;5.00;;;;;;;3.24;nan;101555.03;4970776;28;20106;-86
2022/05/01 03:05:59;;;;;;;8.03;5.40;;;;;;;3.28;nan;101555.16;4983677;28;20093;-86
2022/05/01 03:08:28;;;;;;;7.27;5.17;;;;;;;3.31;nan;101560.44;4974079;28;20172;-87
2022/05/01 03:10:54;;;;;;;6.77;4.97;;;;;;;3.24;nan;101561.16;4969357;28;20121;-86
2022/05/01 03:13:21;;;;;;;8.13;4.87;;;;;;;3.19;nan;101554.03;4964150;28;20049;-86
2022/05/01 03:16:07;;;;;;;7.27;5.07;;;;;;;3.16;nan;101553.97;4981886;28;20038;-86
2022/05/01 03:22:34;;;;;;;7.60;5.60;;;;;;;3.05;nan;101552.00;4996889;28;20127;-85
2022/05/01 03:24:51;;;;;;;8.30;6.10;;;;;;;3.01;nan;101551.88;4993621;28;20149;-84
2022/05/01 03:27:23;;;;;;;10.47;5.47;;;;;;;2.94;nan;101544.72;4970101;28;20150;-85
2022/05/01 03:32:48;;;;;;;8.17;5.47;;;;;;;2.90;nan;101553.34;4999309;28;20113;-86
2022/05/01 03:35:22;;;;;;;5.90;4.97;;;;;;;2.89;nan;101546.38;4962400;28;20582;-87
2022/05/01 03:37:50;;;;;;;8.03;4.83;;;;;;;2.85;nan;101547.13;4978731;28;20098;-84
2022/05/01 03:40:42;;;;;;;7.13;5.77;;;;;;;2.90;nan;101543.78;4966779;28;20247;-86
2022/05/01 03:43:32;;;;;;;8.80;5.37;;;;;;;2.92;nan;101536.00;4952264;28;20053;-87
2022/05/01 03:46:00;;;;;;;8.93;6.50;;;;;;;2.88;nan;101544.59;4980159;28;20122;-87
2022/05/01 03:48:37;;;;;;;7.80;5.50;;;;;;;2.94;nan;101555.16;4981547;28;20332;-85
2022/05/01 03:51:08;;;;;;;10.53;6.10;;;;;;;2.87;nan;101548.06;4967021;28;20042;-86
2022/05/01 03:53:36;;;;;;;8.97;6.30;;;;;;;2.97;nan;101550.94;4965138;28;20053;-85
2022/05/01 03:56:03;;;;;;;9.03;5.93;;;;;;;3.10;nan;101554.72;4983295;28;20038;-87
2022/05/01 03:58:31;;;;;;;9.67;5.77;;;;;;;2.99;nan;101550.97;4980624;28;20061;-86
2022/05/01 04:01:02;;;;;;;9.37;6.20;;;;;;;3.00;nan;101555.34;4982985;28;20507;-86
2022/05/01 04:03:30;;;;;;;11.73;6.60;;;;;;;3.11;nan;101543.41;4948507;28;20971;-86
2022/05/01 04:05:59;;;;;;;9.57;5.70;;;;;;;3.26;nan;101546.41;4996712;28;20491;-86
2022/05/01 04:08:26;;;;;;;12.07;6.13;;;;;;;3.24;nan;101550.72;4965811;28;20048;-86
2022/05/01 04:10:53;;;;;;;10.37;7.03;;;;;;;3.31;nan;101542.16;4983637;28;20045;-86
2022/05/01 04:13:21;;;;;;;10.13;6.00;;;;;;;3.35;nan;101549.22;4997846;28;20398;-86
2022/05/01 04:15:48;;;;;;;8.50;6.17;;;;;;;3.43;nan;101544.16;4964103;28;20042;-85
2022/05/01 04:18:15;;;;;;;9.10;5.70;;;;;;;3.47;nan;101548.63;4990734;28;20069;-85
2022/05/01 04:20:42;;;;;;;8.03;6.00;;;;;;;3.47;nan;101552.97;4990583;28;20042;-86
2022/05/01 04:23:10;;;;;;;8.53;5.87;;;;;;;3.52;nan;101549.59;4988598;28;20500;-85
2022/05/01 04:25:39;;;;;;;10.17;6.10;;;;;;;3.71;nan;101553.53;4966132;28;20039;-86
2022/05/01 04:28:09;;;;;;;8.57;5.90;;;;;;;3.75;nan;101552.72;4981426;28;20048;-88
2022/05/01 04:30:37;;;;;;;9.47;5.87;;;;;;;3.85;nan;101553.81;4975207;28;20046;-86
2022/05/01 04:33:06;;;;;;;10.60;7.00;;;;;;;3.88;nan;101556.50;4966620;28;20045;-88
2022/05/01 04:35:40;;;;;;;7.80;5.93;;;;;;;3.94;nan;101547.03;5003825;28;20045;-85
2022/05/01 04:38:26;;;;;;;9.75;7.20;;;;;;;4.12;nan;101556.09;4982938;28;20034;-88
2022/05/01 04:40:55;;;;;;;10.53;5.97;;;;;;;4.34;nan;101557.41;4960365;28;20250;-86
2022/05/01 04:43:24;;;;;;;7.83;5.20;;;;;;;4.39;nan;101561.88;4994271;28;20116;-86
2022/05/01 04:45:56;;;;;;;7.93;5.67;;;;;;;4.43;nan;101566.31;4988754;28;20030;-87
2022/05/01 04:48:24;;;;;;;9.10;5.83;;;;;;;4.47;nan;101564.66;4963098;28;20060;-86
2022/05/01 04:50:52;;;;;;;8.97;5.17;;;;;;;4.59;nan;101570.09;4960877;28;20050;-87
2022/05/01 04:53:22;;;;;;;9.10;5.67;;;;;;;4.71;nan;101565.09;4966821;28;20418;-86
2022/05/01 04:55:52;;;;;;;9.53;6.17;;;;;;;4.87;nan;101560.13;4971532;28;20042;-87
2022/05/01 04:58:20;;;;;;;8.67;5.67;;;;;;;4.94;nan;101562.00;4982375;28;20042;-88
2022/05/01 05:00:48;;;;;;;11.80;6.20;;;;;;;5.03;nan;101565.63;4992693;28;20085;-86
2022/05/01 05:03:16;;;;;;;8.33;5.40;;;;;;;5.24;nan;101557.25;4960011;28;20041;-85
2022/05/01 05:05:43;;;;;;;9.13;5.83;;;;;;;5.40;nan;101558.38;4996831;28;20395;-88
2022/05/01 05:11:03;;;;;;;10.40;6.00;;;;;;;5.62;nan;101563.06;4990240;28;20050;-88
2022/05/01 05:13:33;;;;;;;7.90;5.33;;;;;;;5.76;nan;101570.25;4986607;28;20042;-88
2022/05/01 05:16:01;;;;;;;7.17;5.10;;;;;;;5.84;nan;101568.59;4972745;28;20038;-87
2022/05/01 05:18:28;;;;;;;7.47;5.40;;;;;;;6.02;nan;101570.63;4974623;28;20518;-85
2022/05/01 05:20:56;;;;;;;6.83;4.90;;;;;;;6.13;nan;101563.75;4971174;28;20409;-88
2022/05/01 05:23:23;;;;;;;6.07;4.80;;;;;;;6.39;nan;101567.59;4970289;28;20048;-88
2022/05/01 05:25:50;;;;;;;7.23;4.67;;;;;;;6.64;nan;101567.81;4965254;28;20044;-84
2022/05/01 05:28:18;;;;;;;7.33;4.70;;;;;;;6.84;nan;101579.41;4959264;28;20049;-88
2022/05/01 05:30:47;;;;;;;5.80;4.30;;;;;;;7.09;nan;101575.25;4978601;28;20034;-87
2022/05/01 05:33:14;;;;;;;7.13;4.27;;;;;;;7.35;nan;101570.19;4972609;28;20045;-87
2022/05/01 05:35:41;;;;;;;6.77;4.53;;;;;;;7.48;nan;101572.06;4976266;28;20044;-88
2022/05/01 05:38:08;;;;;;;5.87;4.10;;;;;;;7.68;nan;101573.94;4991754;28;20042;-87
2022/05/01 05:40:36;;;;;;;6.80;5.20;;;;;;;7.82;nan;101574.91;4972525;28;20041;-86
2022/05/01 05:43:03;;;;;;;5.80;4.70;;;;;;;7.96;nan;101575.81;4999851;28;20045;-86
2022/05/01 05:45:30;;;;;;;5.60;4.20;;;;;;;8.06;nan;101576.75;4973138;28;20060;-87
2022/05/01 05:47:57;;;;;;;8.30;4.27;;;;;;;8.21;nan;101566.28;4959553;28;20148;-85
2022/05/01 05:50:24;;;;;;;4.73;4.20;;;;;;;8.30;nan;101576.84;4973811;28;20053;-87
2022/05/01 05:52:54;;;;;;;5.43;3.70;;;;;;;8.30;nan;101579.47;4980190;28;20033;-86
2022/05/01 05:55:21;;;;;;;4.90;3.70;;;;;;;8.35;nan;101577.78;4961293;28;20038;-86
2022/05/01 05:57:48;;;;;;;5.93;3.93;;;;;;;8.45;nan;101579.56;4958706;28;20038;-87
2022/05/01 06:00:15;;;;;;;8.50;4.60;;;;;;;8.71;nan;101573.47;4975362;28;20044;-86
2022/05/01 06:02:43;;;;;;;6.80;3.97;;;;;;;8.84;nan;101575.28;4976393;28;20042;-86
2022/05/01 06:05:10;;;;;;;4.43;3.40;;;;;;;9.13;nan;101569.13;4976493;28;20402;-86
2022/05/01 06:07:37;;;;;;;3.95;3.00;;;;;;;9.37;nan;101579.66;4973710;28;20030;-86
2022/05/01 07:02:48;;;;;;;3.97;2.97;;;;;;;10.24;nan;101589.16;5008507;28;20052;-85
2022/05/01 07:05:15;;;;;;;4.28;2.70;;;;;;;10.35;nan;101590.00;4986982;28;20030;-86
2022/05/01 07:07:42;;;;;;;5.70;3.25;;;;;;;10.47;nan;101586.41;4962699;28;20513;-85
2022/05/01 07:10:10;;;;;;;4.25;2.70;;;;;;;10.55;nan;101584.59;4961341;28;20038;-85
2022/05/01 07:12:37;;;;;;;6.25;3.20;;;;;;;10.61;nan;101584.56;4964527;28;20048;-86
2022/05/01 07:15:05;;;;;;;4.30;2.72;;;;;;;10.69;nan;101578.34;4987593;28;20056;-84
2022/05/01 07:17:33;;;;;;;5.80;3.15;;;;;;;10.84;nan;101584.41;4971569;28;20045;-82
2022/05/01 07:20:00;;;;;;;4.95;3.17;;;;;;;10.98;nan;101579.91;4975642;28;20030;-81
2022/05/01 07:22:26;;;;;;;4.03;3.03;;;;;;;10.99;nan;101587.81;4990323;28;20045;-81
2022/05/01 07:24:53;;;;;;;6.20;2.50;;;;;;;11.10;nan;101582.47;4987542;28;20404;-82
2022/05/01 07:27:20;;;;;;;4.82;2.67;;;;;;;11.12;nan;101585.09;4973403;28;20034;-82
2022/05/01 07:29:47;;;;;;;3.45;2.72;;;;;;;11.08;nan;101586.00;4990072;28;20034;-81
2022/05/01 07:32:15;;;;;;;4.57;2.97;;;;;;;11.09;nan;101588.63;4976741;28;20042;-80
2022/05/01 07:34:42;;;;;;;4.03;2.15;;;;;;;11.31;nan;101583.16;4960633;28;20509;-79
2022/05/01 07:37:08;;;;;;;4.55;2.75;;;;;;;11.47;nan;101583.03;4960618;28;20503;-80
2022/05/01 07:39:35;;;;;;;3.70;2.40;;;;;;;11.62;nan;101584.66;4975099;28;20053;-82
2022/05/01 07:42:03;;;;;;;3.13;2.17;;;;;;;11.91;nan;101583.47;4991845;28;20030;-81
2022/05/01 07:44:30;;;;;;;3.88;2.38;;;;;;;12.01;nan;101578.06;4972705;28;20087;-80
2022/05/01 07:46:57;;;;;;;3.08;2.35;;;;;;;11.95;nan;101577.28;5019054;28;20034;-81
2022/05/01 07:49:25;;;;;;;4.57;2.50;;;;;;;12.14;nan;101577.94;4973366;28;20038;-81
2022/05/01 07:51:52;;;;;;;3.88;2.72;;;;;;;12.32;nan;101585.63;4972742;28;20048;-80
2022/05/01 07:54:18;;;;;;;3.92;2.40;;;;;;;12.31;nan;101581.25;4990767;28;20417;-80
2022/05/01 07:56:45;;;;;;;4.72;2.60;;;;;;;12.19;nan;101577.00;4993296;28;20034;-80
2022/05/01 07:59:12;;;;;;;5.15;2.22;;;;;;;12.64;nan;101571.94;4987213;28;20034;-81
2022/05/01 08:01:39;;;;;;;5.00;2.50;;;;;;;12.91;nan;101578.63;4989333;28;20050;-81
2022/05/01 08:06:52;;;;;;;4.07;2.38;;;;;;;13.00;nan;101582.91;4973285;28;20048;-83
2022/05/01 08:09:19;;;;;;;4.55;2.00;;;;;;;13.13;nan;101580.03;4974150;28;20044;-81
2022/05/01 08:11:46;;;;;;;2.42;1.80;;;;;;;13.17;nan;101583.50;4972082;28;20042;-80
2022/05/01 08:14:13;;;;;;;3.60;2.20;;;;;;;13.18;nan;101587.91;4990476;28;21082;-82
2022/05/01 08:16:40;;;;;;;2.03;1.70;;;;;;;13.13;nan;101587.13;5005828;28;20390;-80
2022/05/01 08:21:52;;;;;;;5.22;1.65;;;;;;;12.64;nan;101590.50;5001841;28;20068;-80
2022/05/01 08:24:19;;;;;;;4.10;1.73;;;;;;;12.57;nan;101591.50;4988495;28;20057;-80
2022/05/01 08:26:48;;;;;;;33.30;5.43;;;;;;;12.45;nan;101595.19;4989289;28;20394;-79
2022/05/01 08:29:15;;;;;;;7.45;1.92;;;;;;;12.28;nan;101591.88;4973607;28;20487;-79
2022/05/01 08:31:47;;;;;;;5.43;1.80;;;;;;;12.15;nan;101592.91;4976703;28;20045;-79
2022/05/01 08:34:14;;;;;;;2.50;2.22;;;;;;;12.27;nan;101592.75;4994992;28;20044;-81
2022/05/01 08:36:41;;;;;;;3.47;1.80;;;;;;;12.22;nan;101599.91;4977068;28;20038;-81
2022/05/01 08:39:09;;;;;;;3.33;1.85;;;;;;;12.04;nan;101598.34;5004057;28;20040;-80
2022/05/01 08:41:36;;;;;;;4.20;1.80;;;;;;;11.98;nan;101604.59;4990591;28;21075;-79
2022/05/01 08:44:05;;;;;;;2.83;1.80;;;;;;;12.01;nan;101603.66;4994163;28;20038;-80
2022/05/01 08:46:47;;;;;;;3.00;2.17;;;;;;;12.09;nan;101600.03;4992656;28;20068;-81
2022/05/01 08:49:17;;;;;;;4.60;2.28;;;;;;;12.16;nan;101599.97;4992789;28;20543;-81
2022/05/01 08:51:44;;;;;;;2.63;2.03;;;;;;;12.38;nan;101612.06;4976468;28;20042;-83
2022/05/01 08:54:13;;;;;;;2.92;2.08;;;;;;;12.49;nan;101603.97;4977337;28;20041;-81
2022/05/01 08:56:42;;;;;;;3.22;2.85;;;;;;;12.54;nan;101612.75;4992755;28;20044;-80
2022/05/01 08:59:11;;;;;;;2.80;2.30;;;;;;;12.51;nan;101608.34;4987241;28;20529;-80
2022/05/01 09:01:40;;;;;;;4.65;2.53;;;;;;;12.62;nan;101610.88;4982885;28;20030;-80
2022/05/01 09:04:09;;;;;;;3.83;2.03;;;;;;;12.67;nan;101611.66;4998767;28;20053;-80
2022/05/01 09:06:37;;;;;;;3.50;2.20;;;;;;;12.75;nan;101612.44;4974933;28;20030;-81
2022/05/01 09:09:05;;;;;;;4.22;3.03;;;;;;;12.55;nan;101604.78;4960706;28;20048;-80
2022/05/01 09:14:20;;;;;;;4.25;2.40;;;;;;;12.64;nan;101601.13;4990267;28;20156;-80
2022/05/01 09:17:13;;;;;;;3.88;2.60;;;;;;;12.65;nan;101594.91;4987548;28;20025;-82
2022/05/01 09:19:43;;;;;;;13.30;2.63;;;;;;;12.47;nan;101603.13;4975414;28;20034;-80
2022/05/01 09:22:12;;;;;;;11.57;3.35;;;;;;;12.42;nan;101604.94;4995093;28;20034;-81
2022/05/01 09:24:39;;;;;;;5.60;2.88;;;;;;;12.06;nan;101601.84;4970736;28;20617;-80
2022/05/01 09:27:23;;;;;;;3.67;2.47;;;;;;;12.13;nan;101606.19;4986682;28;20048;-79
2022/05/01 09:30:06;;;;;;;2.80;2.00;;;;;;;12.07;nan;101600.97;4974481;28;20052;-79
2022/05/01 09:32:38;;;;;;;2.67;1.98;;;;;;;12.27;nan;101612.19;4972656;28;20041;-82
2022/05/01 09:35:29;;;;;;;4.60;2.58;;;;;;;12.73;nan;101602.75;4987981;28;20044;-80
2022/05/01 09:38:16;;;;;;;4.43;2.30;;;;;;;12.77;nan;101593.84;4993659;28;20045;-79
2022/05/01 09:40:52;;;;;;;4.80;2.30;;;;;;;12.80;nan;101600.00;4977484;28;20042;-80
2022/05/01 09:43:41;;;;;;;4.10;2.20;;;;;;;12.80;nan;101602.66;4987216;28;20048;-80
2022/05/01 09:46:16;;;;;;;3.90;2.50;;;;;;;12.79;nan;101586.78;4992427;28;20381;-80
2022/05/01 09:48:58;;;;;;;3.60;2.00;;;;;;;12.81;nan;101592.91;4992546;28;20498;-81
2022/05/01 09:51:26;;;;;;;3.20;1.92;;;;;;;12.95;nan;101596.25;4993552;28;20046;-81
2022/05/01 09:53:53;;;;;;;5.85;2.42;;;;;;;12.92;nan;101596.28;4977186;28;20050;-80
2022/05/01 09:56:20;;;;;;;6.53;2.10;;;;;;;13.02;nan;101591.69;4997568;28;20709;-80
2022/05/01 09:58:57;;;;;;;3.17;2.00;;;;;;;13.11;nan;101589.78;4992194;28;20072;-80
2022/05/01 10:01:24;;;;;;;2.55;1.58;;;;;;;13.13;nan;101595.97;4998845;28;20040;-81
2022/05/01 10:03:52;;;;;;;4.10;2.10;;;;;;;13.11;nan;101586.25;4976322;28;20060;-80
2022/05/01 10:06:20;;;;;;;4.35;1.80;;;;;;;13.18;nan;101599.38;4992875;28;20048;-80
2022/05/01 10:08:47;;;;;;;2.65;2.10;;;;;;;13.22;nan;101590.53;4992576;28;20052;-82
2022/05/01 10:11:17;;;;;;;3.38;2.55;;;;;;;13.43;nan;101588.41;4963855;28;20044;-81
2022/05/01 10:13:45;;;;;;;4.97;2.53;;;;;;;13.86;nan;101582.28;5001507;28;20044;-81
2022/05/01 10:16:15;;;;;;;4.53;2.55;;;;;;;14.28;nan;101580.56;5011786;28;20048;-81
2022/05/01 10:18:46;;;;;;;4.32;2.22;;;;;;;14.62;nan;101578.94;4974794;28;20060;-81
2022/05/01 10:21:35;;;;;;;4.45;2.33;;;;;;;14.95;nan;101576.41;4977145;28;20065;-81
2022/05/01 10:24:02;;;;;;;3.55;2.53;;;;;;;15.01;nan;101581.59;4962775;28;20059;-80
2022/05/01 10:26:34;;;;;;;4.28;1.98;;;;;;;15.13;nan;101586.63;4994293;28;20056;-81
2022/05/01 10:29:24;;;;;;;5.25;2.35;;;;;;;15.01;nan;101573.63;5000234;28;20035;-81
2022/05/01 10:32:22;;;;;;;4.70;2.33;;;;;;;15.22;nan;101572.22;5004790;28;20549;-80
2022/05/01 10:35:25;;;;;;;3.78;2.28;;;;;;;15.03;nan;101571.78;4991418;28;20046;-80
2022/05/01 10:38:23;;;;;;;6.10;2.38;;;;;;;15.03;nan;101569.13;4990131;28;20037;-81
2022/05/01 10:40:52;;;;;;;3.25;2.28;;;;;;;15.03;nan;101568.25;5012005;28;20049;-81
2022/05/01 10:43:26;;;;;;;5.05;2.45;;;;;;;15.03;nan;101561.13;4975325;28;20041;-81
2022/05/01 10:45:54;;;;;;;2.63;1.95;;;;;;;15.27;nan;101549.00;4976440;28;20046;-81
2022/05/01 10:48:39;;;;;;;3.47;2.03;;;;;;;15.48;nan;101553.78;4992006;28;20033;-80
2022/05/01 10:51:28;;;;;;;4.45;2.17;;;;;;;15.56;nan;101555.38;5005194;28;20056;-81
2022/05/01 10:54:10;;;;;;;2.92;1.92;;;;;;;15.65;nan;101557.81;4976541;28;20049;-81
2022/05/01 10:56:46;;;;;;;4.72;2.33;;;;;;;15.56;nan;101561.56;4993280;28;20056;-81
2022/05/01 10:59:34;;;;;;;3.42;2.10;;;;;;;15.67;nan;101555.97;4975408;28;20042;-80
2022/05/01 11:02:25;;;;;;;3.00;1.70;;;;;;;15.54;nan;101560.72;4992263;28;20034;-80
2022/05/01 11:04:54;;;;;;;5.15;2.15;;;;;;;15.45;nan;101559.16;4968635;28;20046;-79
2022/05/01 11:07:24;;;;;;;3.67;1.95;;;;;;;15.13;nan;101559.13;4991380;28;20059;-80
2022/05/01 11:09:51;;;;;;;2.63;2.03;;;;;;;15.15;nan;101559.97;4969559;28;20068;-80
2022/05/01 11:12:19;;;;;;;2.35;1.70;;;;;;;14.88;nan;101567.72;4993109;28;20048;-82
2022/05/01 11:14:52;;;;;;;2.28;1.60;;;;;;;14.78;nan;101558.19;4972928;28;20445;-80
2022/05/01 11:17:36;;;;;;;3.08;1.75;;;;;;;14.67;nan;101567.34;4975623;28;20072;-80
2022/05/01 11:20:25;;;;;;;2.97;1.83;;;;;;;14.47;nan;101560.69;5007836;28;20041;-80
2022/05/01 11:22:52;;;;;;;2.10;1.65;;;;;;;14.47;nan;101557.16;4991713;28;20289;-81
2022/05/01 11:25:33;;;;;;;2.67;1.50;;;;;;;14.36;nan;101563.53;4974140;28;20045;-79
2022/05/01 11:28:00;;;;;;;3.03;2.00;;;;;;;14.48;nan;101559.78;4959738;28;20038;-80
2022/05/01 11:30:27;;;;;;;3.65;1.75;;;;;;;14.33;nan;101554.75;4985229;28;20129;-80
2022/05/01 11:33:11;;;;;;;2.85;1.90;;;;;;;14.34;nan;101556.50;5009296;28;20044;-80
2022/05/01 11:36:05;;;;;;;4.35;1.80;;;;;;;14.35;nan;101552.94;4997224;28;20038;-81
2022/05/01 11:38:38;;;;;;;3.78;1.75;;;;;;;14.28;nan;101556.63;5005689;28;20045;-79
2022/05/01 11:41:06;;;;;;;2.25;1.80;;;;;;;14.10;nan;101549.94;5009306;28;20038;-81
2022/05/01 11:43:34;;;;;;;3.42;1.67;;;;;;;13.97;nan;101556.41;4989617;28;20979;-80
2022/05/01 11:46:03;;;;;;;1.90;1.65;;;;;;;14.01;nan;101551.00;4989725;28;20667;-80
2022/05/01 11:48:31;;;;;;;47.55;6.95;;;;;;;14.08;nan;101544.66;4982544;28;20026;-80
2022/05/01 11:50:58;;;;;;;4.38;1.88;;;;;;;14.03;nan;101548.31;5014985;28;20529;-80
2022/05/01 11:53:28;;;;;;;2.60;1.67;;;;;;;14.09;nan;101548.19;5008165;28;20044;-80
2022/05/01 12:04:30;;;;;;;2.47;1.60;;;;;;;14.41;nan;101552.81;4992219;28;20426;-80
2022/05/01 12:06:59;;;;;;;1.83;1.67;;;;;;;14.39;nan;101549.31;4991500;28;20414;-81
2022/05/01 12:09:26;;;;;;;2.78;1.48;;;;;;;14.44;nan;101555.41;5003504;28;20611;-80
2022/05/01 12:11:53;;;;;;;2.08;1.58;;;;;;;14.29;nan;101547.75;4976743;28;20054;-80
2022/05/01 12:14:23;;;;;;;2.20;1.65;;;;;;;14.26;nan;101547.81;4996618;28;20394;-80
2022/05/01 12:16:52;;;;;;;2.33;1.73;;;;;;;14.26;nan;101548.69;4994449;28;20054;-79
2022/05/01 12:19:20;;;;;;;2.72;1.75;;;;;;;14.13;nan;101547.22;4961003;28;20049;-80
2022/05/01 12:21:47;;;;;;;3.33;1.80;;;;;;;14.02;nan;101546.56;4962163;28;20042;-79
2022/05/01 12:24:14;;;;;;;3.10;1.50;;;;;;;14.00;nan;101546.59;4977143;28;20045;-79
2022/05/01 12:26:52;;;;;;;2.97;1.70;;;;;;;14.05;nan;101543.84;4993954;28;20041;-80
2022/05/01 12:29:19;;;;;;;2.28;1.63;;;;;;;14.00;nan;101545.72;5000439;28;20033;-80
2022/05/01 12:31:53;;;;;;;2.97;1.83;;;;;;;14.01;nan;101545.69;4995783;28;20044;-80
2022/05/01 12:34:24;;;;;;;3.38;1.77;;;;;;;13.91;nan;101541.47;5009750;28;20029;-80
2022/05/01 12:36:56;;;;;;;3.03;1.70;;;;;;;13.90;nan;101545.03;4990216;28;20040;-80
2022/05/01 12:39:23;;;;;;;2.63;1.60;;;;;;;13.97;nan;101541.34;5005051;28;20048;-81
2022/05/01 12:45:14;;;;;;;4.53;2.00;;;;;;;14.05;nan;101550.03;5002324;28;20044;-81
2022/05/01 12:48:00;;;;;;;6.32;1.80;;;;;;;13.95;nan;101543.13;5017175;28;20032;-81
2022/05/01 12:50:29;;;;;;;2.85;1.80;;;;;;;13.77;nan;101535.53;5003901;28;20034;-80
2022/05/01 12:52:58;;;;;;;1.73;1.40;;;;;;;13.74;nan;101532.97;4976061;28;20041;-80
2022/05/01 12:55:35;;;;;;;2.05;1.33;;;;;;;13.70;nan;101541.88;4971978;28;20511;-80
2022/05/01 12:58:04;;;;;;;3.47;1.90;;;;;;;13.65;nan;101534.00;4975162;28;20049;-80
2022/05/01 13:00:41;;;;;;;2.50;1.60;;;;;;;13.71;nan;101535.69;4991746;28;20044;-81
2022/05/01 13:03:17;;;;;;;3.58;1.60;;;;;;;13.69;nan;101532.16;4996883;28;20033;-82
2022/05/01 13:06:13;;;;;;;3.17;1.60;;;;;;;13.66;nan;101522.47;4979196;28;20049;-81
2022/05/01 13:08:44;;;;;;;2.63;1.50;;;;;;;13.79;nan;101524.00;4990589;28;20038;-81
2022/05/01 13:11:31;;;;;;;2.10;1.60;;;;;;;13.87;nan;101526.47;4998522;28;20117;-82
2022/05/01 13:14:30;;;;;;;2.88;1.77;;;;;;;13.81;nan;101516.00;4962932;28;20586;-81
2022/05/01 13:17:08;;;;;;;4.75;2.10;;;;;;;13.88;nan;101519.41;4996743;28;20038;-80
2022/05/01 13:19:36;;;;;;;3.28;1.90;;;;;;;13.91;nan;101506.94;4958506;28;20686;-82
2022/05/01 13:22:03;;;;;;;3.42;2.15;;;;;;;13.82;nan;101506.25;4994282;28;20048;-81
2022/05/01 13:24:35;;;;;;;3.78;1.90;;;;;;;13.82;nan;101504.47;4990310;28;20049;-81
2022/05/01 13:27:05;;;;;;;4.93;1.95;;;;;;;13.79;nan;101510.72;4995501;28;21588;-82
2022/05/01 13:29:33;;;;;;;2.00;1.60;;;;;;;13.84;nan;101499.13;4976731;28;20702;-82
2022/05/01 13:32:03;;;;;;;3.03;1.85;;;;;;;13.96;nan;101499.75;4978902;28;20052;-81
2022/05/01 13:34:30;;;;;;;3.97;2.05;;;;;;;13.63;nan;101495.13;4976626;28;20061;-81